Clitherall, Minnesota
Current Conditions -  °F | °C
As of 5:53 AM on Monday 22 Dec 2014 (Local Time) from KADC Reporting Station
Light Rain Light Rain  
Wind Chill: 25°   Ceiling: 600
Heat Index: 34°   Visibility: 2.5mi
Dew Point: 34°   Wind: 12mph
Humidity: 100%   Direction: 140°SE
Pressure: 29.54"   Gusts: NA
Location:  46.27°N, 95.63°W
Report Text: KADC 221153Z AUTO 14010KT 2 1/2SM -RA OVC006 01/01 A2954 RMK AO2
Loading
Personal Weather Stations






























Interactive Weather Map New forecast layout! Learn more

10-Day Weather Forecast

Advertisements
Track Severe Weather on mobile